sensor_id;sensor_type;location;lat;lon;timestamp;pressure;altitude;pressure_sealevel;temperature
58307;BMP280;44116;50.884;4.768;2023-02-11T00:01:19;103000.0;;;4.8
58307;BMP280;44116;50.884;4.768;2023-02-11T00:03:17;102990.00000000001;;;4.8
58307;BMP280;44116;50.884;4.768;2023-02-11T00:05:17;102990.00000000001;;;4.8
58307;BMP280;44116;50.884;4.768;2023-02-11T00:07:16;102990.00000000001;;;4.8
58307;BMP280;44116;50.884;4.768;2023-02-11T00:09:16;102990.00000000001;;;4.8
58307;BMP280;44116;50.884;4.768;2023-02-11T00:11:16;102990.00000000001;;;4.6
58307;BMP280;44116;50.884;4.768;2023-02-11T00:13:15;102990.00000000001;;;4.6
58307;BMP280;44116;50.884;4.768;2023-02-11T00:15:15;103000.0;;;4.6
58307;BMP280;44116;50.884;4.768;2023-02-11T00:17:14;102990.00000000001;;;4.6
58307;BMP280;44116;50.884;4.768;2023-02-11T00:19:14;102990.00000000001;;;4.6
58307;BMP280;44116;50.884;4.768;2023-02-11T00:21:14;103000.0;;;4.5
58307;BMP280;44116;50.884;4.768;2023-02-11T00:23:13;103000.0;;;4.5
58307;BMP280;44116;50.884;4.768;2023-02-11T00:25:13;103000.0;;;4.5
58307;BMP280;44116;50.884;4.768;2023-02-11T00:27:12;103000.0;;;4.5
58307;BMP280;44116;50.884;4.768;2023-02-11T00:29:12;103000.0;;;4.5
58307;BMP280;44116;50.884;4.768;2023-02-11T00:31:12;102990.00000000001;;;4.5
58307;BMP280;44116;50.884;4.768;2023-02-11T00:33:11;102990.00000000001;;;4.4
58307;BMP280;44116;50.884;4.768;2023-02-11T00:35:11;102990.00000000001;;;4.4
58307;BMP280;44116;50.884;4.768;2023-02-11T00:37:10;102990.00000000001;;;4.4
58307;BMP280;44116;50.884;4.768;2023-02-11T00:39:11;102990.00000000001;;;4.4
58307;BMP280;44116;50.884;4.768;2023-02-11T00:41:10;102990.00000000001;;;4.3
58307;BMP280;44116;50.884;4.768;2023-02-11T00:43:09;102990.00000000001;;;4.3
58307;BMP280;44116;50.884;4.768;2023-02-11T00:45:09;102970.0;;;4.4
58307;BMP280;44116;50.884;4.768;2023-02-11T00:49:08;102970.0;;;4.3
58307;BMP280;44116;50.884;4.768;2023-02-11T00:51:08;102970.0;;;4.3
58307;BMP280;44116;50.884;4.768;2023-02-11T00:53:07;102959.99999999999;;;4.3
58307;BMP280;44116;50.884;4.768;2023-02-11T00:55:07;102959.99999999999;;;4.3
58307;BMP280;44116;50.884;4.768;2023-02-11T00:57:07;102950.0;;;4.2
58307;BMP280;44116;50.884;4.768;2023-02-11T00:59:06;102940.00000000001;;;4.2
58307;BMP280;44116;50.884;4.768;2023-02-11T01:01:06;102940.00000000001;;;4.3
58307;BMP280;44116;50.884;4.768;2023-02-11T01:03:05;102950.0;;;4.1
58307;BMP280;44116;50.884;4.768;2023-02-11T01:05:05;102950.0;;;4.2
58307;BMP280;44116;50.884;4.768;2023-02-11T01:07:04;102950.0;;;4.2
58307;BMP280;44116;50.884;4.768;2023-02-11T01:09:04;102950.0;;;4.2
58307;BMP280;44116;50.884;4.768;2023-02-11T01:11:04;102950.0;;;4.2
58307;BMP280;44116;50.884;4.768;2023-02-11T01:13:03;102950.0;;;4.2
58307;BMP280;44116;50.884;4.768;2023-02-11T01:15:03;102940.00000000001;;;4.2
58307;BMP280;44116;50.884;4.768;2023-02-11T01:19:02;102950.0;;;4.2
58307;BMP280;44116;50.884;4.768;2023-02-11T01:21:02;102950.0;;;4.2
58307;BMP280;44116;50.884;4.768;2023-02-11T01:23:01;102950.0;;;4.2
58307;BMP280;44116;50.884;4.768;2023-02-11T01:25:01;102950.0;;;4.2
58307;BMP280;44116;50.884;4.768;2023-02-11T01:27:00;102940.00000000001;;;4.2
58307;BMP280;44116;50.884;4.768;2023-02-11T01:29:00;102950.0;;;4.3
58307;BMP280;44116;50.884;4.768;2023-02-11T01:31:00;102950.0;;;4.3
58307;BMP280;44116;50.884;4.768;2023-02-11T01:32:59;102940.00000000001;;;4.2
58307;BMP280;44116;50.884;4.768;2023-02-11T01:34:59;102950.0;;;4.3
58307;BMP280;44116;50.884;4.768;2023-02-11T01:36:59;102950.0;;;4.3
58307;BMP280;44116;50.884;4.768;2023-02-11T01:38:58;102950.0;;;4.3
58307;BMP280;44116;50.884;4.768;2023-02-11T01:40:59;102950.0;;;4.3
58307;BMP280;44116;50.884;4.768;2023-02-11T01:42:57;102959.99999999999;;;4.3
58307;BMP280;44116;50.884;4.768;2023-02-11T01:44:59;102959.99999999999;;;4.3
58307;BMP280;44116;50.884;4.768;2023-02-11T01:46:56;102959.99999999999;;;4.3
58307;BMP280;44116;50.884;4.768;2023-02-11T01:48:56;102959.99999999999;;;4.4
58307;BMP280;44116;50.884;4.768;2023-02-11T01:50:57;102959.99999999999;;;4.3
58307;BMP280;44116;50.884;4.768;2023-02-11T01:52:55;102959.99999999999;;;4.3
58307;BMP280;44116;50.884;4.768;2023-02-11T01:54:56;102959.99999999999;;;4.2
58307;BMP280;44116;50.884;4.768;2023-02-11T01:56:55;102970.0;;;4.3
58307;BMP280;44116;50.884;4.768;2023-02-11T01:58:54;102970.0;;;4.3
58307;BMP280;44116;50.884;4.768;2023-02-11T02:00:53;102959.99999999999;;;4.2
58307;BMP280;44116;50.884;4.768;2023-02-11T02:02:54;102970.0;;;4.2
58307;BMP280;44116;50.884;4.768;2023-02-11T02:04:54;102970.0;;;4.2
58307;BMP280;44116;50.884;4.768;2023-02-11T02:06:54;102970.0;;;4.3
58307;BMP280;44116;50.884;4.768;2023-02-11T02:08:53;102959.99999999999;;;4.3
58307;BMP280;44116;50.884;4.768;2023-02-11T02:10:52;102959.99999999999;;;4.3
58307;BMP280;44116;50.884;4.768;2023-02-11T02:12:51;102970.0;;;4.3
58307;BMP280;44116;50.884;4.768;2023-02-11T02:14:51;102970.0;;;4.4
58307;BMP280;44116;50.884;4.768;2023-02-11T02:16:50;102959.99999999999;;;4.3
58307;BMP280;44116;50.884;4.768;2023-02-11T02:18:52;102959.99999999999;;;4.4
58307;BMP280;44116;50.884;4.768;2023-02-11T02:20:55;102950.0;;;4.4
58307;BMP280;44116;50.884;4.768;2023-02-11T02:24:54;102950.0;;;4.4
58307;BMP280;44116;50.884;4.768;2023-02-11T02:26:52;102950.0;;;4.4
58307;BMP280;44116;50.884;4.768;2023-02-11T02:28:55;102950.0;;;4.4
58307;BMP280;44116;50.884;4.768;2023-02-11T02:30:54;102950.0;;;4.4
58307;BMP280;44116;50.884;4.768;2023-02-11T02:32:49;102940.00000000001;;;4.4
58307;BMP280;44116;50.884;4.768;2023-02-11T02:34:48;102940.00000000001;;;4.4
58307;BMP280;44116;50.884;4.768;2023-02-11T02:36:47;102940.00000000001;;;4.4
58307;BMP280;44116;50.884;4.768;2023-02-11T02:38:47;102950.0;;;4.4
58307;BMP280;44116;50.884;4.768;2023-02-11T02:40:46;102950.0;;;4.4
58307;BMP280;44116;50.884;4.768;2023-02-11T02:42:45;102950.0;;;4.4
58307;BMP280;44116;50.884;4.768;2023-02-11T02:44:46;102940.00000000001;;;4.4
58307;BMP280;44116;50.884;4.768;2023-02-11T02:46:44;102950.0;;;4.4
58307;BMP280;44116;50.884;4.768;2023-02-11T02:48:44;102950.0;;;4.4
58307;BMP280;44116;50.884;4.768;2023-02-11T02:50:43;102950.0;;;4.4
58307;BMP280;44116;50.884;4.768;2023-02-11T02:52:45;102950.0;;;4.5
58307;BMP280;44116;50.884;4.768;2023-02-11T02:54:47;102940.00000000001;;;4.4
58307;BMP280;44116;50.884;4.768;2023-02-11T02:56:43;102940.00000000001;;;4.4
58307;BMP280;44116;50.884;4.768;2023-02-11T02:58:47;102940.00000000001;;;4.4
58307;BMP280;44116;50.884;4.768;2023-02-11T03:00:42;102940.00000000001;;;4.3
58307;BMP280;44116;50.884;4.768;2023-02-11T03:02:43;102940.00000000001;;;4.3
58307;BMP280;44116;50.884;4.768;2023-02-11T03:04:41;102940.00000000001;;;4.3
58307;BMP280;44116;50.884;4.768;2023-02-11T03:06:43;102930.0;;;4.3
58307;BMP280;44116;50.884;4.768;2023-02-11T03:08:41;102930.0;;;4.3
58307;BMP280;44116;50.884;4.768;2023-02-11T03:10:40;102930.0;;;4.2
58307;BMP280;44116;50.884;4.768;2023-02-11T03:12:39;102930.0;;;4.2
58307;BMP280;44116;50.884;4.768;2023-02-11T03:14:38;102920.0;;;4.2
58307;BMP280;44116;50.884;4.768;2023-02-11T03:16:38;102920.0;;;4.2
58307;BMP280;44116;50.884;4.768;2023-02-11T03:18:38;102920.0;;;4.3
58307;BMP280;44116;50.884;4.768;2023-02-11T03:20:37;102920.0;;;4.3
58307;BMP280;44116;50.884;4.768;2023-02-11T03:22:38;102920.0;;;4.3
58307;BMP280;44116;50.884;4.768;2023-02-11T03:24:37;102909.99999999999;;;4.2
58307;BMP280;44116;50.884;4.768;2023-02-11T03:26:37;102909.99999999999;;;4.3
58307;BMP280;44116;50.884;4.768;2023-02-11T03:28:37;102909.99999999999;;;4.3
58307;BMP280;44116;50.884;4.768;2023-02-11T03:30:36;102909.99999999999;;;4.4
58307;BMP280;44116;50.884;4.768;2023-02-11T03:32:35;102909.99999999999;;;4.4
58307;BMP280;44116;50.884;4.768;2023-02-11T03:34:35;102909.99999999999;;;4.4
58307;BMP280;44116;50.884;4.768;2023-02-11T03:36:35;102909.99999999999;;;4.4
58307;BMP280;44116;50.884;4.768;2023-02-11T03:38:34;102909.99999999999;;;4.4
58307;BMP280;44116;50.884;4.768;2023-02-11T03:40:34;102900.0;;;4.5
58307;BMP280;44116;50.884;4.768;2023-02-11T03:42:34;102900.0;;;4.5
58307;BMP280;44116;50.884;4.768;2023-02-11T03:44:33;102900.0;;;4.5
58307;BMP280;44116;50.884;4.768;2023-02-11T03:48:32;102909.99999999999;;;4.5
58307;BMP280;44116;50.884;4.768;2023-02-11T03:50:31;102920.0;;;4.5
58307;BMP280;44116;50.884;4.768;2023-02-11T03:52:31;102920.0;;;4.5
58307;BMP280;44116;50.884;4.768;2023-02-11T03:54:30;102920.0;;;4.6
58307;BMP280;44116;50.884;4.768;2023-02-11T03:56:31;102909.99999999999;;;4.6
58307;BMP280;44116;50.884;4.768;2023-02-11T03:58:29;102909.99999999999;;;4.6
58307;BMP280;44116;50.884;4.768;2023-02-11T04:00:29;102909.99999999999;;;4.6
58307;BMP280;44116;50.884;4.768;2023-02-11T04:02:29;102909.99999999999;;;4.5
58307;BMP280;44116;50.884;4.768;2023-02-11T04:04:28;102909.99999999999;;;4.6
58307;BMP280;44116;50.884;4.768;2023-02-11T04:06:27;102909.99999999999;;;4.6
58307;BMP280;44116;50.884;4.768;2023-02-11T04:08:27;102920.0;;;4.6
58307;BMP280;44116;50.884;4.768;2023-02-11T04:10:27;102920.0;;;4.6
58307;BMP280;44116;50.884;4.768;2023-02-11T04:12:26;102909.99999999999;;;4.6
58307;BMP280;44116;50.884;4.768;2023-02-11T04:14:26;102909.99999999999;;;4.6
58307;BMP280;44116;50.884;4.768;2023-02-11T04:16:25;102909.99999999999;;;4.6
58307;BMP280;44116;50.884;4.768;2023-02-11T04:18:25;102920.0;;;4.7
58307;BMP280;44116;50.884;4.768;2023-02-11T04:20:25;102920.0;;;4.6
58307;BMP280;44116;50.884;4.768;2023-02-11T04:22:24;102920.0;;;4.6
58307;BMP280;44116;50.884;4.768;2023-02-11T04:24:24;102920.0;;;4.7
58307;BMP280;44116;50.884;4.768;2023-02-11T04:26:23;102920.0;;;4.6
58307;BMP280;44116;50.884;4.768;2023-02-11T04:28:23;102920.0;;;4.6
58307;BMP280;44116;50.884;4.768;2023-02-11T04:30:23;102920.0;;;4.6
58307;BMP280;44116;50.884;4.768;2023-02-11T04:32:23;102920.0;;;4.6
58307;BMP280;44116;50.884;4.768;2023-02-11T04:34:22;102920.0;;;4.6
58307;BMP280;44116;50.884;4.768;2023-02-11T04:36:21;102920.0;;;4.5
58307;BMP280;44116;50.884;4.768;2023-02-11T04:38:21;102930.0;;;4.5
58307;BMP280;44116;50.884;4.768;2023-02-11T04:40:21;102920.0;;;4.6
58307;BMP280;44116;50.884;4.768;2023-02-11T04:42:20;102920.0;;;4.7
58307;BMP280;44116;50.884;4.768;2023-02-11T04:44:20;102920.0;;;4.7
58307;BMP280;44116;50.884;4.768;2023-02-11T04:46:19;102920.0;;;4.7
58307;BMP280;44116;50.884;4.768;2023-02-11T04:48:19;102909.99999999999;;;4.7
58307;BMP280;44116;50.884;4.768;2023-02-11T04:50:18;102909.99999999999;;;4.7
58307;BMP280;44116;50.884;4.768;2023-02-11T04:52:18;102909.99999999999;;;4.7
58307;BMP280;44116;50.884;4.768;2023-02-11T04:54:18;102909.99999999999;;;4.8
58307;BMP280;44116;50.884;4.768;2023-02-11T04:56:17;102909.99999999999;;;4.8
58307;BMP280;44116;50.884;4.768;2023-02-11T04:58:17;102900.0;;;4.8
58307;BMP280;44116;50.884;4.768;2023-02-11T05:00:16;102900.0;;;4.8
58307;BMP280;44116;50.884;4.768;2023-02-11T05:02:16;102900.0;;;4.7
58307;BMP280;44116;50.884;4.768;2023-02-11T05:04:16;102890.00000000001;;;4.7
58307;BMP280;44116;50.884;4.768;2023-02-11T05:06:15;102900.0;;;4.8
58307;BMP280;44116;50.884;4.768;2023-02-11T05:08:15;102900.0;;;4.8
58307;BMP280;44116;50.884;4.768;2023-02-11T05:10:14;102890.00000000001;;;4.8
58307;BMP280;44116;50.884;4.768;2023-02-11T05:12:14;102890.00000000001;;;4.8
58307;BMP280;44116;50.884;4.768;2023-02-11T05:16:14;102890.00000000001;;;4.8
58307;BMP280;44116;50.884;4.768;2023-02-11T05:18:13;102890.00000000001;;;4.8
58307;BMP280;44116;50.884;4.768;2023-02-11T05:20:13;102890.00000000001;;;4.8
58307;BMP280;44116;50.884;4.768;2023-02-11T05:22:12;102880.0;;;4.8
58307;BMP280;44116;50.884;4.768;2023-02-11T05:24:12;102880.0;;;4.8
58307;BMP280;44116;50.884;4.768;2023-02-11T05:26:11;102880.0;;;4.8
58307;BMP280;44116;50.884;4.768;2023-02-11T05:28:11;102870.0;;;4.8
58307;BMP280;44116;50.884;4.768;2023-02-11T05:30:11;102870.0;;;4.8
58307;BMP280;44116;50.884;4.768;2023-02-11T05:32:10;102880.0;;;4.8
58307;BMP280;44116;50.884;4.768;2023-02-11T05:34:10;102870.0;;;4.8
58307;BMP280;44116;50.884;4.768;2023-02-11T05:36:10;102870.0;;;4.8
58307;BMP280;44116;50.884;4.768;2023-02-11T05:38:09;102859.99999999999;;;4.8
58307;BMP280;44116;50.884;4.768;2023-02-11T05:40:09;102859.99999999999;;;4.8
58307;BMP280;44116;50.884;4.768;2023-02-11T05:42:08;102859.99999999999;;;4.8
58307;BMP280;44116;50.884;4.768;2023-02-11T05:44:08;102870.0;;;4.8
58307;BMP280;44116;50.884;4.768;2023-02-11T05:46:07;102870.0;;;4.9
58307;BMP280;44116;50.884;4.768;2023-02-11T05:48:07;102870.0;;;4.8
58307;BMP280;44116;50.884;4.768;2023-02-11T05:50:07;102870.0;;;4.8
58307;BMP280;44116;50.884;4.768;2023-02-11T05:52:06;102880.0;;;4.9
58307;BMP280;44116;50.884;4.768;2023-02-11T05:54:06;102870.0;;;4.9
58307;BMP280;44116;50.884;4.768;2023-02-11T05:56:05;102880.0;;;4.9
58307;BMP280;44116;50.884;4.768;2023-02-11T05:58:05;102870.0;;;4.9
58307;BMP280;44116;50.884;4.768;2023-02-11T06:00:05;102870.0;;;4.9
58307;BMP280;44116;50.884;4.768;2023-02-11T06:02:04;102880.0;;;4.9
58307;BMP280;44116;50.884;4.768;2023-02-11T06:04:04;102870.0;;;4.9
58307;BMP280;44116;50.884;4.768;2023-02-11T06:06:03;102880.0;;;4.9
58307;BMP280;44116;50.884;4.768;2023-02-11T06:08:03;102880.0;;;4.9
58307;BMP280;44116;50.884;4.768;2023-02-11T06:10:03;102880.0;;;4.9
58307;BMP280;44116;50.884;4.768;2023-02-11T06:12:02;102880.0;;;4.9
58307;BMP280;44116;50.884;4.768;2023-02-11T06:14:02;102870.0;;;4.9
58307;BMP280;44116;50.884;4.768;2023-02-11T06:16:01;102870.0;;;4.9
58307;BMP280;44116;50.884;4.768;2023-02-11T06:18:01;102859.99999999999;;;4.9
58307;BMP280;44116;50.884;4.768;2023-02-11T06:20:01;102859.99999999999;;;5.0
58307;BMP280;44116;50.884;4.768;2023-02-11T06:22:00;102870.0;;;4.9
58307;BMP280;44116;50.884;4.768;2023-02-11T06:26:00;102870.0;;;4.9
58307;BMP280;44116;50.884;4.768;2023-02-11T06:27:59;102870.0;;;4.9
58307;BMP280;44116;50.884;4.768;2023-02-11T06:29:58;102859.99999999999;;;5.0
58307;BMP280;44116;50.884;4.768;2023-02-11T06:31:58;102859.99999999999;;;5.0
58307;BMP280;44116;50.884;4.768;2023-02-11T06:33:57;102859.99999999999;;;4.9
58307;BMP280;44116;50.884;4.768;2023-02-11T06:35:57;102870.0;;;5.0
58307;BMP280;44116;50.884;4.768;2023-02-11T06:37:57;102870.0;;;5.0
58307;BMP280;44116;50.884;4.768;2023-02-11T06:39:56;102870.0;;;5.0
58307;BMP280;44116;50.884;4.768;2023-02-11T06:41:56;102870.0;;;5.0
58307;BMP280;44116;50.884;4.768;2023-02-11T06:43:56;102880.0;;;4.9
58307;BMP280;44116;50.884;4.768;2023-02-11T06:45:55;102880.0;;;4.9
58307;BMP280;44116;50.884;4.768;2023-02-11T06:47:55;102880.0;;;5.0
58307;BMP280;44116;50.884;4.768;2023-02-11T06:49:54;102890.00000000001;;;5.0
58307;BMP280;44116;50.884;4.768;2023-02-11T06:51:54;102890.00000000001;;;5.0
58307;BMP280;44116;50.884;4.768;2023-02-11T06:53:54;102890.00000000001;;;4.9
58307;BMP280;44116;50.884;4.768;2023-02-11T06:55:53;102890.00000000001;;;4.9
58307;BMP280;44116;50.884;4.768;2023-02-11T06:57:53;102880.0;;;4.9
58307;BMP280;44116;50.884;4.768;2023-02-11T06:59:52;102880.0;;;4.9
58307;BMP280;44116;50.884;4.768;2023-02-11T07:01:52;102870.0;;;5.0
58307;BMP280;44116;50.884;4.768;2023-02-11T07:03:52;102870.0;;;4.9
58307;BMP280;44116;50.884;4.768;2023-02-11T07:09:51;102880.0;;;4.9
58307;BMP280;44116;50.884;4.768;2023-02-11T07:11:50;102880.0;;;4.9
58307;BMP280;44116;50.884;4.768;2023-02-11T07:13:50;102880.0;;;5.0
58307;BMP280;44116;50.884;4.768;2023-02-11T07:15:49;102880.0;;;5.0
58307;BMP280;44116;50.884;4.768;2023-02-11T07:17:49;102890.00000000001;;;4.9
58307;BMP280;44116;50.884;4.768;2023-02-11T07:19:48;102890.00000000001;;;5.0
58307;BMP280;44116;50.884;4.768;2023-02-11T07:21:48;102890.00000000001;;;5.0
58307;BMP280;44116;50.884;4.768;2023-02-11T07:23:48;102890.00000000001;;;5.0
58307;BMP280;44116;50.884;4.768;2023-02-11T07:27:47;102900.0;;;5.0
58307;BMP280;44116;50.884;4.768;2023-02-11T07:29:46;102900.0;;;5.0
58307;BMP280;44116;50.884;4.768;2023-02-11T07:31:46;102900.0;;;5.0
58307;BMP280;44116;50.884;4.768;2023-02-11T07:33:46;102890.00000000001;;;5.0
58307;BMP280;44116;50.884;4.768;2023-02-11T07:35:45;102900.0;;;5.0
58307;BMP280;44116;50.884;4.768;2023-02-11T07:37:45;102900.0;;;5.0
58307;BMP280;44116;50.884;4.768;2023-02-11T07:39:44;102900.0;;;5.1
58307;BMP280;44116;50.884;4.768;2023-02-11T07:41:44;102900.0;;;5.1
58307;BMP280;44116;50.884;4.768;2023-02-11T07:43:44;102909.99999999999;;;5.1
58307;BMP280;44116;50.884;4.768;2023-02-11T07:47:43;102920.0;;;5.1
58307;BMP280;44116;50.884;4.768;2023-02-11T07:49:43;102920.0;;;5.1
58307;BMP280;44116;50.884;4.768;2023-02-11T07:51:42;102920.0;;;5.1
58307;BMP280;44116;50.884;4.768;2023-02-11T07:53:42;102920.0;;;5.1
58307;BMP280;44116;50.884;4.768;2023-02-11T07:55:41;102920.0;;;5.2
58307;BMP280;44116;50.884;4.768;2023-02-11T07:57:41;102920.0;;;5.2
58307;BMP280;44116;50.884;4.768;2023-02-11T07:59:41;102920.0;;;5.2
58307;BMP280;44116;50.884;4.768;2023-02-11T08:01:40;102920.0;;;5.2
58307;BMP280;44116;50.884;4.768;2023-02-11T08:03:40;102920.0;;;5.2
58307;BMP280;44116;50.884;4.768;2023-02-11T08:05:39;102920.0;;;5.2
58307;BMP280;44116;50.884;4.768;2023-02-11T08:07:39;102930.0;;;5.2
58307;BMP280;44116;50.884;4.768;2023-02-11T08:09:39;102930.0;;;5.2
58307;BMP280;44116;50.884;4.768;2023-02-11T08:11:38;102940.00000000001;;;5.3
58307;BMP280;44116;50.884;4.768;2023-02-11T08:13:38;102940.00000000001;;;5.3
58307;BMP280;44116;50.884;4.768;2023-02-11T08:15:37;102940.00000000001;;;5.3
58307;BMP280;44116;50.884;4.768;2023-02-11T08:19:37;102950.0;;;5.3
58307;BMP280;44116;50.884;4.768;2023-02-11T08:21:36;102950.0;;;5.3
58307;BMP280;44116;50.884;4.768;2023-02-11T08:23:36;102959.99999999999;;;5.3
58307;BMP280;44116;50.884;4.768;2023-02-11T08:25:36;102959.99999999999;;;5.3
58307;BMP280;44116;50.884;4.768;2023-02-11T08:27:35;102959.99999999999;;;5.4
58307;BMP280;44116;50.884;4.768;2023-02-11T08:29:35;102959.99999999999;;;5.4
58307;BMP280;44116;50.884;4.768;2023-02-11T08:31:35;102950.0;;;5.4
58307;BMP280;44116;50.884;4.768;2023-02-11T08:33:34;102950.0;;;5.4
58307;BMP280;44116;50.884;4.768;2023-02-11T08:35:34;102959.99999999999;;;5.4
58307;BMP280;44116;50.884;4.768;2023-02-11T08:37:33;102959.99999999999;;;5.5
58307;BMP280;44116;50.884;4.768;2023-02-11T08:39:33;102959.99999999999;;;5.4
58307;BMP280;44116;50.884;4.768;2023-02-11T08:41:33;102959.99999999999;;;5.4
58307;BMP280;44116;50.884;4.768;2023-02-11T08:43:32;102959.99999999999;;;5.5
58307;BMP280;44116;50.884;4.768;2023-02-11T08:45:32;102959.99999999999;;;5.4
58307;BMP280;44116;50.884;4.768;2023-02-11T08:47:31;102959.99999999999;;;5.5
58307;BMP280;44116;50.884;4.768;2023-02-11T08:49:31;102959.99999999999;;;5.5
58307;BMP280;44116;50.884;4.768;2023-02-11T08:51:31;102970.0;;;5.5
58307;BMP280;44116;50.884;4.768;2023-02-11T08:53:30;102970.0;;;5.5
58307;BMP280;44116;50.884;4.768;2023-02-11T08:55:30;102970.0;;;5.5
58307;BMP280;44116;50.884;4.768;2023-02-11T08:57:29;102970.0;;;5.5
58307;BMP280;44116;50.884;4.768;2023-02-11T08:59:29;102980.0;;;5.5
58307;BMP280;44116;50.884;4.768;2023-02-11T09:01:29;102980.0;;;5.5
58307;BMP280;44116;50.884;4.768;2023-02-11T09:03:28;102980.0;;;5.5
58307;BMP280;44116;50.884;4.768;2023-02-11T09:05:28;102980.0;;;5.6
58307;BMP280;44116;50.884;4.768;2023-02-11T09:07:27;102980.0;;;5.6
58307;BMP280;44116;50.884;4.768;2023-02-11T09:09:27;102980.0;;;5.6
58307;BMP280;44116;50.884;4.768;2023-02-11T09:11:28;102980.0;;;5.6
58307;BMP280;44116;50.884;4.768;2023-02-11T09:13:26;102990.00000000001;;;5.6
58307;BMP280;44116;50.884;4.768;2023-02-11T09:15:26;102980.0;;;5.6
58307;BMP280;44116;50.884;4.768;2023-02-11T09:19:25;102980.0;;;5.7
58307;BMP280;44116;50.884;4.768;2023-02-11T09:21:25;102980.0;;;5.7
58307;BMP280;44116;50.884;4.768;2023-02-11T09:23:24;102990.00000000001;;;5.7
58307;BMP280;44116;50.884;4.768;2023-02-11T09:25:24;102990.00000000001;;;5.7
58307;BMP280;44116;50.884;4.768;2023-02-11T09:27:23;102990.00000000001;;;5.8
58307;BMP280;44116;50.884;4.768;2023-02-11T09:29:23;102990.00000000001;;;5.8
58307;BMP280;44116;50.884;4.768;2023-02-11T09:31:23;102990.00000000001;;;5.8
58307;BMP280;44116;50.884;4.768;2023-02-11T09:33:22;102990.00000000001;;;5.8
58307;BMP280;44116;50.884;4.768;2023-02-11T09:35:22;102990.00000000001;;;5.8
58307;BMP280;44116;50.884;4.768;2023-02-11T09:37:21;102980.0;;;5.8
58307;BMP280;44116;50.884;4.768;2023-02-11T09:39:21;102980.0;;;5.9
58307;BMP280;44116;50.884;4.768;2023-02-11T09:53:53;103000.0;;;6.0
58307;BMP280;44116;50.884;4.768;2023-02-11T09:55:20;103000.0;;;6.0
58307;BMP280;44116;50.884;4.768;2023-02-11T09:57:18;103000.0;;;6.0
58307;BMP280;44116;50.884;4.768;2023-02-11T09:59:17;103000.0;;;6.0
58307;BMP280;44116;50.884;4.768;2023-02-11T10:01:20;103000.0;;;6.0
58307;BMP280;44116;50.884;4.768;2023-02-11T10:03:20;103000.0;;;6.0
58307;BMP280;44116;50.884;4.768;2023-02-11T10:05:20;103000.0;;;6.0
58307;BMP280;44116;50.884;4.768;2023-02-11T10:07:17;103000.0;;;6.1
58307;BMP280;44116;50.884;4.768;2023-02-11T10:09:21;103000.0;;;6.1
58307;BMP280;44116;50.884;4.768;2023-02-11T10:11:16;103009.99999999999;;;6.1
58307;BMP280;44116;50.884;4.768;2023-02-11T10:13:21;103009.99999999999;;;6.1
58307;BMP280;44116;50.884;4.768;2023-02-11T10:15:17;103009.99999999999;;;6.1
58307;BMP280;44116;50.884;4.768;2023-02-11T10:17:16;103009.99999999999;;;6.2
58307;BMP280;44116;50.884;4.768;2023-02-11T10:19:18;103009.99999999999;;;6.2
58307;BMP280;44116;50.884;4.768;2023-02-11T10:21:16;103009.99999999999;;;6.2
58307;BMP280;44116;50.884;4.768;2023-02-11T10:23:14;103009.99999999999;;;6.2
58307;BMP280;44116;50.884;4.768;2023-02-11T10:25:16;103009.99999999999;;;6.2
58307;BMP280;44116;50.884;4.768;2023-02-11T10:27:14;103009.99999999999;;;6.2
58307;BMP280;44116;50.884;4.768;2023-02-11T10:29:14;103020.0;;;6.2
58307;BMP280;44116;50.884;4.768;2023-02-11T10:31:12;103020.0;;;6.2
58307;BMP280;44116;50.884;4.768;2023-02-11T10:33:12;103030.0;;;6.2
58307;BMP280;44116;50.884;4.768;2023-02-11T10:35:12;103030.0;;;6.2
58307;BMP280;44116;50.884;4.768;2023-02-11T10:37:10;103030.0;;;6.3
58307;BMP280;44116;50.884;4.768;2023-02-11T10:39:10;103030.0;;;6.3
58307;BMP280;44116;50.884;4.768;2023-02-11T10:41:10;103040.00000000001;;;6.4
58307;BMP280;44116;50.884;4.768;2023-02-11T10:45:09;103030.0;;;6.4
58307;BMP280;44116;50.884;4.768;2023-02-11T10:47:10;103030.0;;;6.4
58307;BMP280;44116;50.884;4.768;2023-02-11T10:49:08;103030.0;;;6.4
58307;BMP280;44116;50.884;4.768;2023-02-11T10:51:13;103030.0;;;6.4
58307;BMP280;44116;50.884;4.768;2023-02-11T10:53:10;103030.0;;;6.4
58307;BMP280;44116;50.884;4.768;2023-02-11T10:57:11;103040.00000000001;;;6.5
58307;BMP280;44116;50.884;4.768;2023-02-11T10:59:06;103030.0;;;6.5
58307;BMP280;44116;50.884;4.768;2023-02-11T11:01:06;103030.0;;;6.6
58307;BMP280;44116;50.884;4.768;2023-02-11T11:03:06;103030.0;;;6.6
58307;BMP280;44116;50.884;4.768;2023-02-11T11:05:06;103030.0;;;6.5
58307;BMP280;44116;50.884;4.768;2023-02-11T11:07:13;103030.0;;;6.6
58307;BMP280;44116;50.884;4.768;2023-02-11T11:09:04;103030.0;;;6.6
58307;BMP280;44116;50.884;4.768;2023-02-11T11:11:04;103030.0;;;6.6
58307;BMP280;44116;50.884;4.768;2023-02-11T11:13:03;103030.0;;;6.6
58307;BMP280;44116;50.884;4.768;2023-02-11T11:15:13;103040.00000000001;;;6.6
58307;BMP280;44116;50.884;4.768;2023-02-11T11:17:10;103030.0;;;6.6
58307;BMP280;44116;50.884;4.768;2023-02-11T11:21:03;103030.0;;;6.7
58307;BMP280;44116;50.884;4.768;2023-02-11T11:25:01;103030.0;;;6.6
58307;BMP280;44116;50.884;4.768;2023-02-11T11:27:01;103040.00000000001;;;6.7
58307;BMP280;44116;50.884;4.768;2023-02-11T11:29:01;103040.00000000001;;;6.7
58307;BMP280;44116;50.884;4.768;2023-02-11T11:31:00;103040.00000000001;;;6.6
58307;BMP280;44116;50.884;4.768;2023-02-11T11:32:59;103030.0;;;6.7
58307;BMP280;44116;50.884;4.768;2023-02-11T11:34:59;103030.0;;;6.7
58307;BMP280;44116;50.884;4.768;2023-02-11T11:36:59;103030.0;;;6.6
58307;BMP280;44116;50.884;4.768;2023-02-11T11:38:59;103030.0;;;6.7
58307;BMP280;44116;50.884;4.768;2023-02-11T11:43:03;103030.0;;;6.7
58307;BMP280;44116;50.884;4.768;2023-02-11T11:44:58;103020.0;;;6.7
58307;BMP280;44116;50.884;4.768;2023-02-11T11:47:06;103030.0;;;6.7
58307;BMP280;44116;50.884;4.768;2023-02-11T11:49:00;103030.0;;;6.7
58307;BMP280;44116;50.884;4.768;2023-02-11T11:50:57;103030.0;;;6.7
58307;BMP280;44116;50.884;4.768;2023-02-11T11:52:59;103030.0;;;6.7
58307;BMP280;44116;50.884;4.768;2023-02-11T11:54:57;103020.0;;;6.7
58307;BMP280;44116;50.884;4.768;2023-02-11T11:56:56;103020.0;;;6.7